createdAt,value
2022-07-26T00:00:45.127Z,97955.04
2022-07-26T00:03:17.473Z,97947.52
2022-07-26T00:05:49.818Z,97942.31
2022-07-26T00:08:22.424Z,97941.51
2022-07-26T00:10:54.694Z,97943.20
2022-07-26T00:13:30.118Z,97943.27
2022-07-26T00:16:03.103Z,97943.01
2022-07-26T00:18:35.783Z,97946.95
2022-07-26T00:21:08.751Z,97948.08
2022-07-26T00:23:41.297Z,97949.34
2022-07-26T00:26:13.306Z,97948.29
2022-07-26T00:28:45.637Z,97952.42
2022-07-26T00:31:17.856Z,97952.64
2022-07-26T00:33:50.680Z,97953.57
2022-07-26T00:36:23.007Z,97949.19
2022-07-26T00:38:56.742Z,97951.20
2022-07-26T00:41:28.899Z,97948.74
2022-07-26T00:44:01.836Z,97946.67
2022-07-26T00:46:34.371Z,97940.30
2022-07-26T00:49:07.088Z,97942.29
2022-07-26T00:51:39.433Z,97935.05
2022-07-26T00:54:11.829Z,97927.63
2022-07-26T00:56:43.761Z,97927.18
2022-07-26T00:59:17.864Z,97928.70
2022-07-26T01:01:49.889Z,97923.50
2022-07-26T01:04:22.322Z,97912.29
2022-07-26T01:06:55.878Z,97908.82
2022-07-26T01:09:28.174Z,97905.52
2022-07-26T01:12:00.790Z,97904.18
2022-07-26T01:14:32.817Z,97902.66
2022-07-26T01:17:05.472Z,97897.27
2022-07-26T01:19:37.460Z,97894.67
2022-07-26T01:22:14.368Z,97890.31
2022-07-26T01:24:48.664Z,97882.96
2022-07-26T01:27:21.266Z,97883.56
2022-07-26T01:29:53.751Z,97884.70
2022-07-26T01:32:26.504Z,97880.45
2022-07-26T01:34:58.471Z,97879.75
2022-07-26T01:37:30.763Z,97879.40
2022-07-26T01:40:07.246Z,97882.06
2022-07-26T01:42:41.304Z,97876.98
2022-07-26T01:45:14.745Z,97871.68
2022-07-26T01:47:50.280Z,97871.53
2022-07-26T01:50:22.327Z,97867.11
2022-07-26T01:52:54.396Z,97864.11
2022-07-26T01:55:26.779Z,97866.63
2022-07-26T01:57:58.926Z,97864.88
2022-07-26T02:00:32.014Z,97863.15
2022-07-26T02:03:04.802Z,97861.42
2022-07-26T02:05:37.353Z,97860.21
2022-07-26T02:08:09.686Z,97858.69
2022-07-26T02:11:00.585Z,97856.23
2022-07-26T02:13:37.658Z,97853.42
2022-07-26T02:16:13.578Z,97849.73
2022-07-26T02:18:45.938Z,97851.69
2022-07-26T02:21:18.764Z,97848.33
2022-07-26T02:23:50.975Z,97843.90
2022-07-26T02:26:23.469Z,97843.16
2022-07-26T02:28:55.586Z,97849.38
2022-07-26T02:31:32.373Z,97845.31
2022-07-26T02:34:05.627Z,97840.54
2022-07-26T02:36:39.929Z,97840.89
2022-07-26T02:39:12.538Z,97841.42
2022-07-26T02:41:45.154Z,97835.23
2022-07-26T02:44:17.161Z,97831.36
2022-07-26T02:46:49.480Z,97828.21
2022-07-26T02:49:23.654Z,97826.27
2022-07-26T02:51:56.330Z,97822.00
2022-07-26T02:54:28.291Z,97820.02
2022-07-26T02:57:00.767Z,97821.60
2022-07-26T02:59:32.953Z,97817.69
2022-07-26T03:02:05.422Z,97818.02
2022-07-26T03:04:38.141Z,97818.19
2022-07-26T03:07:10.427Z,97814.42
2022-07-26T03:09:42.752Z,97812.98
2022-07-26T03:12:14.940Z,97812.92
2022-07-26T03:14:47.339Z,97811.44
2022-07-26T03:17:21.000Z,97810.52
2022-07-26T03:19:53.638Z,97807.47
2022-07-26T03:22:26.238Z,97811.95
2022-07-26T03:24:58.411Z,97807.95
2022-07-26T03:27:30.611Z,97813.41
2022-07-26T03:30:02.828Z,97807.42
2022-07-26T03:32:35.133Z,97811.48
2022-07-26T03:35:09.452Z,97812.32
2022-07-26T03:37:45.675Z,97810.86
2022-07-26T03:40:20.058Z,97811.53
2022-07-26T03:42:52.768Z,97808.18
2022-07-26T03:45:25.670Z,97808.12
2022-07-26T03:47:57.827Z,97806.89
2022-07-26T03:50:30.277Z,97807.23
2022-07-26T03:53:03.083Z,97802.23
2022-07-26T03:55:53.096Z,97800.36
2022-07-26T03:58:25.263Z,97799.98
2022-07-26T04:00:57.989Z,97798.09
2022-07-26T04:03:30.224Z,97797.50
2022-07-26T04:06:03.555Z,97795.84
2022-07-26T04:08:38.050Z,97799.91
2022-07-26T04:11:10.954Z,97801.73
2022-07-26T04:13:42.978Z,97805.77
2022-07-26T04:16:15.600Z,97808.36
2022-07-26T04:18:47.694Z,97807.05
2022-07-26T04:21:20.129Z,97801.27
2022-07-26T04:23:52.878Z,97794.77
2022-07-26T04:26:25.963Z,97789.38
2022-07-26T04:29:01.107Z,97788.62
2022-07-26T04:31:36.103Z,97791.58
2022-07-26T04:34:10.673Z,97785.36
2022-07-26T04:36:43.791Z,97783.98
2022-07-26T04:39:24.550Z,97782.29
2022-07-26T04:41:56.698Z,97779.27
2022-07-26T04:44:29.074Z,97779.33
2022-07-26T04:47:01.039Z,97787.66
2022-07-26T04:49:33.172Z,97787.59
2022-07-26T04:52:05.938Z,97789.63
2022-07-26T04:54:38.156Z,97796.57
2022-07-26T04:57:10.726Z,97800.98
2022-07-26T04:59:43.531Z,97802.21
2022-07-26T05:02:16.114Z,97810.67
2022-07-26T05:04:48.511Z,97821.70
2022-07-26T05:07:21.421Z,97835.95
2022-07-26T05:09:54.099Z,97844.95
2022-07-26T05:12:26.214Z,97852.71
2022-07-26T05:14:58.463Z,97856.64
2022-07-26T05:17:30.916Z,97847.47
2022-07-26T05:20:03.690Z,97881.71
2022-07-26T05:22:36.005Z,97872.89
2022-07-26T05:25:10.438Z,97862.77
2022-07-26T05:27:42.928Z,97864.70
2022-07-26T05:30:15.819Z,97861.01
2022-07-26T05:32:48.074Z,97866.21
2022-07-26T05:35:20.208Z,97861.16
2022-07-26T05:37:54.317Z,97865.66
2022-07-26T05:40:26.623Z,97868.31
2022-07-26T05:42:59.505Z,97882.27
2022-07-26T05:45:32.067Z,97877.81
2022-07-26T05:48:08.418Z,97877.77
2022-07-26T05:50:40.514Z,97877.71
2022-07-26T05:53:12.863Z,97875.55
2022-07-26T05:55:45.233Z,97886.91
2022-07-26T05:58:17.756Z,97884.26
2022-07-26T06:00:49.812Z,97887.40
2022-07-26T06:03:25.190Z,97886.81
2022-07-26T06:05:59.225Z,97887.66
2022-07-26T06:08:33.650Z,97893.62
2022-07-26T06:11:05.848Z,97895.06
2022-07-26T06:13:38.223Z,97895.77
2022-07-26T06:16:11.531Z,97896.73
2022-07-26T06:18:43.879Z,97890.80
2022-07-26T06:21:15.939Z,97898.91
2022-07-26T06:23:49.723Z,97907.12
2022-07-26T06:26:24.330Z,97915.99
2022-07-26T06:28:56.496Z,97911.38
2022-07-26T06:31:28.924Z,97921.83
2022-07-26T06:34:02.170Z,97924.73
2022-07-26T06:36:34.247Z,97927.17
2022-07-26T06:39:06.777Z,97932.04
2022-07-26T06:41:38.792Z,97931.89
2022-07-26T06:44:11.656Z,97942.13
2022-07-26T06:46:44.130Z,97944.88
2022-07-26T06:49:20.575Z,97946.80
2022-07-26T06:51:58.151Z,97954.65
2022-07-26T06:54:30.336Z,97954.85
2022-07-26T06:57:04.723Z,97957.27
2022-07-26T06:59:37.977Z,97968.49
2022-07-26T07:02:09.980Z,97969.64
2022-07-26T07:04:42.012Z,97979.18
2022-07-26T07:07:14.022Z,97985.20
2022-07-26T07:09:47.229Z,97997.39
2022-07-26T07:12:19.374Z,98002.95
2022-07-26T07:14:51.414Z,98010.86
2022-07-26T07:17:23.704Z,98021.08
2022-07-26T07:19:55.759Z,98031.16
2022-07-26T07:22:29.165Z,98041.79
2022-07-26T07:25:03.030Z,98051.48
2022-07-26T07:27:36.096Z,98070.30
2022-07-26T07:30:11.020Z,98071.19
2022-07-26T07:32:43.923Z,98086.10
2022-07-26T07:35:16.954Z,98093.15
2022-07-26T07:37:52.714Z,98095.54
2022-07-26T07:40:27.254Z,98100.88
2022-07-26T07:43:03.124Z,98102.91
2022-07-26T07:45:36.333Z,98102.96
2022-07-26T07:48:09.789Z,98101.81
2022-07-26T07:50:42.156Z,98102.38
2022-07-26T07:53:14.315Z,98102.23
2022-07-26T07:55:47.056Z,98107.77
2022-07-26T07:58:21.027Z,98110.04
2022-07-26T08:00:53.217Z,98114.83
2022-07-26T08:03:25.594Z,98118.55
2022-07-26T08:06:12.034Z,98120.52
2022-07-26T08:08:44.451Z,98119.89
2022-07-26T08:11:16.913Z,98126.43
2022-07-26T08:13:49.191Z,98134.80
2022-07-26T08:16:21.672Z,98142.58
2022-07-26T08:19:08.696Z,98141.88
2022-07-26T08:21:41.012Z,98142.26
2022-07-26T08:24:14.767Z,98138.69
2022-07-26T08:26:46.723Z,98139.25
2022-07-26T08:29:19.120Z,98152.71
2022-07-26T08:31:53.276Z,98160.65
2022-07-26T08:34:26.300Z,98162.66
2022-07-26T08:37:15.901Z,98169.22
2022-07-26T08:39:50.622Z,98169.03
2022-07-26T08:42:24.361Z,98164.80
2022-07-26T08:44:57.845Z,98160.64
2022-07-26T08:47:37.497Z,98159.02
2022-07-26T08:50:12.757Z,98160.48
2022-07-26T08:52:45.584Z,98164.32
2022-07-26T08:55:21.307Z,98159.85
2022-07-26T08:57:53.371Z,98162.23
2022-07-26T09:00:29.850Z,98162.54
2022-07-26T09:03:05.837Z,98161.33
2022-07-26T09:05:40.295Z,98166.64
2022-07-26T09:08:26.545Z,98172.15
2022-07-26T09:11:00.159Z,98169.98
2022-07-26T09:13:53.710Z,98174.06
2022-07-26T09:16:26.072Z,98171.35
2022-07-26T09:19:17.780Z,98167.30
2022-07-26T09:21:50.697Z,98168.66
2022-07-26T09:24:34.954Z,98170.43
2022-07-26T09:27:09.665Z,98188.99
2022-07-26T09:29:49.735Z,98197.33
2022-07-26T09:32:23.460Z,98201.03
2022-07-26T09:34:58.738Z,98213.46
2022-07-26T09:37:39.636Z,98216.48
2022-07-26T09:40:15.203Z,98218.14
2022-07-26T09:43:00.265Z,98216.36
2022-07-26T09:45:34.265Z,98207.28
2022-07-26T09:48:07.787Z,98209.64
2022-07-26T09:50:40.368Z,98215.42
2022-07-26T09:53:14.372Z,98223.81
2022-07-26T09:55:58.696Z,98224.16
2022-07-26T09:58:30.991Z,98230.40
2022-07-26T10:01:06.605Z,98237.61
2022-07-26T10:03:38.913Z,98235.21
2022-07-26T10:06:12.763Z,98238.57
2022-07-26T10:08:46.352Z,98246.97
2022-07-26T10:11:18.865Z,98250.17
2022-07-26T10:13:51.146Z,98251.05
2022-07-26T10:16:36.654Z,98260.52
2022-07-26T10:19:10.586Z,98259.05
2022-07-26T10:21:44.338Z,98262.16
2022-07-26T10:24:28.823Z,98260.67
2022-07-26T10:27:03.205Z,98268.73
2022-07-26T10:29:37.421Z,98270.08
2022-07-26T10:32:21.492Z,98274.44
2022-07-26T10:34:53.873Z,98277.23
2022-07-26T10:37:28.229Z,98278.52
2022-07-26T10:40:22.731Z,98276.39
2022-07-26T10:42:55.639Z,98273.77
2022-07-26T10:45:29.216Z,98269.73
2022-07-26T10:48:16.693Z,98271.73
2022-07-26T10:50:50.707Z,98272.16
2022-07-26T10:53:24.645Z,98274.55
2022-07-26T10:56:01.503Z,98278.58
2022-07-26T10:58:44.532Z,98282.11
2022-07-26T11:01:16.516Z,98290.56
2022-07-26T11:03:48.949Z,98290.56
2022-07-26T11:06:22.183Z,98292.33
2022-07-26T11:08:56.059Z,98295.16
2022-07-26T11:11:33.351Z,98294.61
2022-07-26T11:14:11.341Z,98299.09
2022-07-26T11:16:45.718Z,98306.20
2022-07-26T11:19:19.555Z,98303.89
2022-07-26T11:21:57.264Z,98301.29
2022-07-26T11:24:29.643Z,98303.61
2022-07-26T11:27:06.234Z,98309.78
2022-07-26T11:29:41.127Z,98316.20
2022-07-26T11:32:22.034Z,98321.82
2022-07-26T11:35:02.392Z,98322.83
2022-07-26T11:37:35.031Z,98315.42
2022-07-26T11:40:09.186Z,98311.38
2022-07-26T11:42:41.393Z,98318.03
2022-07-26T11:45:14.328Z,98321.79
2022-07-26T11:47:46.343Z,98317.57
2022-07-26T11:50:22.925Z,98314.65
2022-07-26T11:52:56.355Z,98316.64
2022-07-26T11:55:34.275Z,98312.59
2022-07-26T11:58:08.750Z,98315.09
2022-07-26T12:00:41.831Z,98313.09
2022-07-26T12:03:13.848Z,98307.82
2022-07-26T12:05:46.492Z,98309.10
2022-07-26T12:08:18.841Z,98309.09
2022-07-26T12:10:57.750Z,98308.34
2022-07-26T12:13:39.853Z,98308.19
2022-07-26T12:16:46.487Z,98311.18
2022-07-26T12:19:32.025Z,98313.43
2022-07-26T12:22:13.527Z,98311.85
2022-07-26T12:24:48.696Z,98313.64
2022-07-26T12:27:22.170Z,98314.39
2022-07-26T12:29:56.418Z,98320.89
2022-07-26T12:32:35.905Z,98317.55
2022-07-26T12:35:11.182Z,98316.48
2022-07-26T12:37:53.791Z,98319.73
2022-07-26T12:40:27.639Z,98321.24
2022-07-26T12:43:04.658Z,98328.05
2022-07-26T12:45:38.641Z,98328.59
2022-07-26T12:48:14.502Z,98326.76
2022-07-26T12:50:46.989Z,98326.99
2022-07-26T12:53:19.020Z,98329.58
2022-07-26T12:55:51.250Z,98335.73
2022-07-26T12:58:24.316Z,98338.36
2022-07-26T13:00:57.832Z,98337.88
2022-07-26T13:03:30.245Z,98343.71
2022-07-26T13:06:03.525Z,98342.41
2022-07-26T13:08:35.690Z,98343.13
2022-07-26T13:11:08.467Z,98337.83
2022-07-26T13:13:40.976Z,98341.60
2022-07-26T13:16:13.054Z,98341.85
2022-07-26T13:18:45.273Z,98341.31
2022-07-26T13:21:19.866Z,98343.38
2022-07-26T13:23:51.930Z,98343.87
2022-07-26T13:26:26.273Z,98348.45
2022-07-26T13:29:00.561Z,98345.77
2022-07-26T13:31:34.794Z,98343.61
2022-07-26T13:34:07.167Z,98341.89
2022-07-26T13:36:39.656Z,98342.67
2022-07-26T13:39:12.172Z,98339.77
2022-07-26T13:41:46.770Z,98342.49
2022-07-26T13:44:19.645Z,98347.45
2022-07-26T13:46:52.490Z,98351.16
2022-07-26T13:49:24.880Z,98356.12
2022-07-26T13:52:00.118Z,98356.96
2022-07-26T13:54:34.902Z,98354.11
2022-07-26T13:57:07.993Z,98351.70
2022-07-26T13:59:40.269Z,98346.83
2022-07-26T14:02:12.334Z,98347.86
2022-07-26T14:04:45.561Z,98345.75
2022-07-26T14:07:19.295Z,98345.27
2022-07-26T14:09:51.493Z,98346.27
2022-07-26T14:12:24.199Z,98351.25
2022-07-26T14:14:56.446Z,98356.29
2022-07-26T14:17:28.711Z,98352.66
2022-07-26T14:20:00.869Z,98348.98
2022-07-26T14:22:34.102Z,98349.59
2022-07-26T14:25:08.377Z,98349.42
2022-07-26T14:27:41.011Z,98347.73
2022-07-26T14:30:15.478Z,98353.10
2022-07-26T14:32:48.347Z,98355.55
2022-07-26T14:35:20.534Z,98358.42
2022-07-26T14:37:52.900Z,98367.15
2022-07-26T14:40:25.601Z,98367.96
2022-07-26T14:42:58.243Z,98363.02
2022-07-26T14:45:32.051Z,98360.98
2022-07-26T14:48:05.934Z,98368.33
2022-07-26T14:51:07.154Z,98365.86
2022-07-26T14:53:31.263Z,98365.28
2022-07-26T14:56:06.120Z,98371.36
2022-07-26T14:58:39.355Z,98371.63
2022-07-26T15:01:11.728Z,98373.78
2022-07-26T15:03:43.887Z,98381.31
2022-07-26T15:06:16.608Z,98380.94
2022-07-26T15:08:49.751Z,98380.45
2022-07-26T15:11:21.886Z,98380.02
2022-07-26T15:13:54.602Z,98371.96
2022-07-26T15:16:26.688Z,98362.94
2022-07-26T15:19:00.429Z,98361.27
2022-07-26T15:21:32.605Z,98357.23
2022-07-26T15:24:05.268Z,98359.44
2022-07-26T15:26:37.456Z,98364.55
2022-07-26T15:29:10.114Z,98368.10
2022-07-26T15:31:43.159Z,98359.88
2022-07-26T15:34:15.929Z,98354.68
2022-07-26T15:36:48.816Z,98351.48
2022-07-26T15:39:21.083Z,98358.80
2022-07-26T15:41:53.877Z,98356.08
2022-07-26T15:44:28.872Z,98357.27
2022-07-26T15:47:01.741Z,98352.31
2022-07-26T15:49:40.476Z,98349.45
2022-07-26T15:52:13.808Z,98350.30
2022-07-26T15:54:46.482Z,98348.60
2022-07-26T15:57:19.143Z,98348.91
2022-07-26T15:59:51.736Z,98341.86
2022-07-26T16:02:24.900Z,98344.34
2022-07-26T16:04:57.717Z,98335.39
2022-07-26T16:07:29.759Z,98329.36
2022-07-26T16:10:02.896Z,98323.24
2022-07-26T16:12:35.933Z,98327.10
2022-07-26T16:15:11.091Z,98334.70
2022-07-26T16:17:43.219Z,98335.59
2022-07-26T16:20:16.519Z,98330.85
2022-07-26T16:22:48.726Z,98334.06
2022-07-26T16:25:20.905Z,98337.81
2022-07-26T16:27:55.165Z,98337.52
2022-07-26T16:30:27.605Z,98336.66
2022-07-26T16:32:59.654Z,98340.40
2022-07-26T16:35:32.080Z,98345.46
2022-07-26T16:38:07.310Z,98343.69
2022-07-26T16:40:39.886Z,98350.06
2022-07-26T16:43:12.294Z,98348.16
2022-07-26T16:45:46.057Z,98343.00
2022-07-26T16:48:18.589Z,98341.41
2022-07-26T16:50:50.821Z,98345.34
2022-07-26T16:53:24.652Z,98338.93
2022-07-26T16:55:57.002Z,98342.30
2022-07-26T16:58:29.479Z,98339.77
2022-07-26T17:01:03.388Z,98336.20
2022-07-26T17:03:35.366Z,98332.42
2022-07-26T17:06:07.848Z,98336.52
2022-07-26T17:08:41.754Z,98343.30
2022-07-26T17:11:13.981Z,98340.91
2022-07-26T17:13:46.222Z,98348.06
2022-07-26T17:16:24.237Z,98349.04
2022-07-26T17:18:57.725Z,98352.52
2022-07-26T17:21:29.991Z,98351.55
2022-07-26T17:24:05.559Z,98349.73
2022-07-26T17:26:38.216Z,98351.00
2022-07-26T17:29:13.660Z,98350.50
2022-07-26T17:31:46.854Z,98354.48
2022-07-26T17:34:19.546Z,98353.52
2022-07-26T17:37:00.019Z,98351.73
2022-07-26T17:39:52.386Z,98348.31
2022-07-26T17:42:26.022Z,98349.88
2022-07-26T17:44:58.416Z,98345.01
2022-07-26T17:47:31.032Z,98347.09
2022-07-26T17:52:58.260Z,98355.08
2022-07-26T17:55:32.439Z,98353.39
2022-07-26T17:58:05.116Z,98347.73
2022-07-26T18:00:39.364Z,98341.41
2022-07-26T18:03:11.777Z,98342.09
2022-07-26T18:05:44.558Z,98336.27
2022-07-26T18:08:16.884Z,98334.76
2022-07-26T18:10:51.224Z,98339.86
2022-07-26T18:13:24.231Z,98345.98
2022-07-26T18:15:57.082Z,98340.22
2022-07-26T18:18:29.458Z,98339.12
2022-07-26T18:21:03.897Z,98340.45
2022-07-26T18:23:36.215Z,98347.59
2022-07-26T18:26:09.425Z,98347.95
2022-07-26T18:28:42.528Z,98354.87
2022-07-26T18:31:21.667Z,98354.92
2022-07-26T18:33:55.933Z,98355.33
2022-07-26T18:36:28.587Z,98358.34
2022-07-26T18:39:03.872Z,98358.88
2022-07-26T18:41:36.111Z,98366.72
2022-07-26T18:44:09.497Z,98365.91
2022-07-26T18:46:44.960Z,98363.52
2022-07-26T18:49:20.040Z,98366.73
2022-07-26T18:51:53.410Z,98369.92
2022-07-26T18:54:26.732Z,98370.67
2022-07-26T18:56:58.875Z,98373.90
2022-07-26T18:59:31.376Z,98379.75
2022-07-26T19:02:04.091Z,98380.95
2022-07-26T19:04:36.437Z,98381.98
2022-07-26T19:07:11.417Z,98385.85
2022-07-26T19:09:43.643Z,98389.71
2022-07-26T19:12:15.746Z,98395.50
2022-07-26T19:14:48.312Z,98392.27
2022-07-26T19:17:22.882Z,98392.58
2022-07-26T19:19:55.697Z,98399.92
2022-07-26T19:22:30.538Z,98403.58
2022-07-26T19:25:03.116Z,98403.31
2022-07-26T19:27:35.254Z,98404.11
2022-07-26T19:30:11.315Z,98407.20
2022-07-26T19:32:43.565Z,98399.70
2022-07-26T19:35:15.926Z,98398.56
2022-07-26T19:37:48.684Z,98398.48
2022-07-26T19:40:20.753Z,98398.59
2022-07-26T19:42:53.187Z,98397.08
2022-07-26T19:45:25.776Z,98401.36
2022-07-26T19:47:58.162Z,98397.73
2022-07-26T19:50:30.293Z,98397.80
2022-07-26T19:53:02.712Z,98403.86
2022-07-26T19:55:38.611Z,98403.91
2022-07-26T19:58:11.261Z,98402.02
2022-07-26T20:00:43.418Z,98402.79
2022-07-26T20:03:17.065Z,98407.42
2022-07-26T20:05:49.043Z,98408.70
2022-07-26T20:08:21.237Z,98410.88
2022-07-26T20:10:54.000Z,98410.91
2022-07-26T20:13:26.208Z,98412.39
2022-07-26T20:15:58.790Z,98409.96
2022-07-26T20:18:31.552Z,98410.02
2022-07-26T20:21:03.822Z,98412.88
2022-07-26T20:23:36.959Z,98408.70
2022-07-26T20:26:09.349Z,98409.45
2022-07-26T20:28:42.109Z,98408.09
2022-07-26T20:31:14.302Z,98407.23
2022-07-26T20:33:46.551Z,98406.58
2022-07-26T20:36:18.709Z,98404.14
2022-07-26T20:38:51.752Z,98405.61
2022-07-26T20:41:25.745Z,98410.04
2022-07-26T20:43:58.036Z,98408.48
2022-07-26T20:46:32.059Z,98409.75
2022-07-26T20:49:06.940Z,98413.14
2022-07-26T20:51:39.250Z,98414.42
2022-07-26T20:54:12.313Z,98415.51
2022-07-26T20:56:44.462Z,98421.00
2022-07-26T20:59:17.095Z,98419.63
2022-07-26T21:01:49.935Z,98421.77
2022-07-26T21:04:22.247Z,98423.19
2022-07-26T21:06:55.100Z,98422.85
2022-07-26T21:09:30.566Z,98418.65
2022-07-26T21:12:02.774Z,98421.87
2022-07-26T21:14:35.146Z,98423.81
2022-07-26T21:17:11.569Z,98425.61
2022-07-26T21:19:44.477Z,98430.07
2022-07-26T21:22:16.541Z,98428.67
2022-07-26T21:24:50.298Z,98429.75
2022-07-26T21:27:22.725Z,98433.70
2022-07-26T21:29:55.235Z,98432.70
2022-07-26T21:32:31.695Z,98437.15
2022-07-26T21:35:04.768Z,98445.47
2022-07-26T21:37:36.881Z,98443.73
2022-07-26T21:40:11.252Z,98442.71
2022-07-26T21:42:43.508Z,98445.90
2022-07-26T21:45:15.582Z,98446.82
2022-07-26T21:47:47.909Z,98443.85
2022-07-26T21:50:20.394Z,98443.55
2022-07-26T21:52:53.156Z,98444.63
2022-07-26T21:55:25.485Z,98444.83
2022-07-26T21:57:58.148Z,98442.77
2022-07-26T22:00:31.162Z,98442.11
2022-07-26T22:03:04.742Z,98442.32
2022-07-26T22:05:42.756Z,98443.05
2022-07-26T22:08:17.372Z,98443.96
2022-07-26T22:10:50.325Z,98440.99
2022-07-26T22:13:23.215Z,98441.73
2022-07-26T22:15:55.458Z,98443.86
2022-07-26T22:18:27.990Z,98445.48
2022-07-26T22:21:01.180Z,98441.80
2022-07-26T22:23:34.064Z,98445.17
2022-07-26T22:26:08.144Z,98445.92
2022-07-26T22:28:40.750Z,98448.76
2022-07-26T22:31:13.203Z,98453.20
2022-07-26T22:33:46.662Z,98452.85
2022-07-26T22:36:19.378Z,98447.94
2022-07-26T22:38:51.895Z,98449.38
2022-07-26T22:41:24.658Z,98448.86
2022-07-26T22:43:57.241Z,98449.05
2022-07-26T22:46:29.816Z,98447.69
2022-07-26T22:49:03.553Z,98446.80
2022-07-26T22:51:35.782Z,98444.90
2022-07-26T22:54:09.546Z,98450.73
2022-07-26T22:56:42.506Z,98452.17
2022-07-26T22:59:15.236Z,98452.91
2022-07-26T23:01:47.667Z,98451.70
2022-07-26T23:04:19.729Z,98448.90
2022-07-26T23:06:54.921Z,98448.70
2022-07-26T23:09:27.290Z,98447.46
2022-07-26T23:12:01.007Z,98452.22
2022-07-26T23:14:33.159Z,98449.77
2022-07-26T23:17:06.111Z,98448.04
2022-07-26T23:19:38.812Z,98445.94
2022-07-26T23:22:11.920Z,98445.58
2022-07-26T23:24:47.404Z,98442.08
2022-07-26T23:27:20.255Z,98442.96
2022-07-26T23:29:52.540Z,98441.38
2022-07-26T23:32:25.122Z,98442.11
2022-07-26T23:34:57.158Z,98444.23
2022-07-26T23:37:29.586Z,98446.36
2022-07-26T23:40:01.844Z,98446.38
2022-07-26T23:42:34.700Z,98449.04
2022-07-26T23:45:09.758Z,98447.14
2022-07-26T23:47:42.143Z,98450.65
2022-07-26T23:50:14.605Z,98446.61
2022-07-26T23:52:47.359Z,98446.11
2022-07-26T23:55:19.856Z,98445.42
2022-07-26T23:57:51.733Z,98446.84
